• Join FlightAware (Why Join?)
  • Login
  • US Flag 
08:32PM EDT


 

Airport Tracker/Info


-or-


 

Live Flight TrackerFlight Track Log ✈ SKW4664 ✈ 30-Jul-2013 ✈ KFSD - KMSP

Flight Track Log - Related Links

Times and Time Zones

All times are in EDT time to prevent confusion due to time zone crossing. See the SKW4664 flight status page for this flight to view local times or setup timezone preferences in your user account.

Time Position Orientation Groundspeed Altitude Reporting Facility
EDT Latitude Longitude Course Direction KTS MPH feet Rate Location/Type
12:09PM 43.5217 -96.6972 122° Southeast 250 288 4,200  Level Minneapolis Center
12:11PM 43.5647 -96.6178 53° Northeast 258 297 6,800 2,400 Climbing Minneapolis Center
12:12PM 43.6231 -96.5222 50° Northeast 267 307 9,800 2,700 Climbing Minneapolis Center
12:13PM 43.9369 -96.0804 52° Northeast  Level FlightAware Approximate
12:13PM 43.6872 -96.4206 49° Northeast 284 327 12,500  Level Minneapolis Center
12:14PM 44.0106 -95.9480 52° Northeast  Level FlightAware Approximate
12:14PM 43.7425 -96.3306 50° Northeast 302 348 14,400  Level Minneapolis Center
12:15PM 43.8014 -96.2358 49° Northeast 321 369 16,100 1,500 Climbing Minneapolis Center
12:16PM 43.8622 -96.1361 50° Northeast 338 389 17,600 1,320 Climbing Minneapolis Center
12:17PM 43.9253 -96.0331 50° Northeast 352 405 18,900 1,440 Climbing Minneapolis Center
12:18PM 44.0017 -95.9072 50° Northeast 358 412 20,600 1,440 Climbing Minneapolis Center
12:19PM 44.0669 -95.7994 50° Northeast 367 422 21,900 1,140 Climbing Minneapolis Center
12:20PM 44.1231 -95.6783 57° Northeast 376 433 23,000 480 Climbing Minneapolis Center
12:21PM 44.1744 -95.5425 62° Northeast 392 451 23,000  Level Minneapolis Center
12:22PM 44.2297 -95.3994 62° Northeast 413 475 23,000  Level Minneapolis Center
12:23PM 44.2956 -95.2289 62° Northeast 418 481 23,000 -480 Level Minneapolis Center
12:24PM 44.3503 -95.0861 62° Northeast 418 481 22,100 -1,020 Descending Minneapolis Center
12:25PM 44.4011 -94.9475 63° Northeast 409 471 20,900 -1,260 Descending Minneapolis Center
12:26PM 44.4528 -94.8103 62° Northeast 402 463 19,600 -1,560 Descending Minneapolis Center
12:27PM 44.5119 -94.6931 55° Northeast 381 438 17,700 -1,860 Descending Minneapolis Center
12:28PM 44.6039 -94.6119 32° Northeast 361 415 15,800 -1,320 Descending Minneapolis Center
12:29PM 44.6794 -94.5297 38° Northeast 356 410 15,000 -600 Descending Minneapolis Center
12:30PM 44.6967 -94.3886 80° East 379 436 14,600 -1,620 Descending Minneapolis Center
12:31PM 44.6947 -94.2114 91° East 374 430 11,700 -1,800 Descending Minneapolis Center
12:32PM 44.7119 -94.0733 80° East 360 414 11,000 -360 Descending Minneapolis Center
12:33PM 44.7433 -93.9375 72° East 364 419 11,000  Level Minneapolis Center
12:35PM 44.7736 -93.8006 73° East 367 422 11,000  Level Minneapolis Center
12:36PM 44.8039 -93.6631 73° East 369 425 11,000 -60 Level Minneapolis Center
12:37PM 44.8325 -93.5303 73° East 351 404 10,900 -900 Descending Minneapolis Center
12:38PM 44.8581 -93.4169 72° East 304 350 9,200 -1,620 Descending Minneapolis Center
12:39PM 44.8444 -93.2850 98° East 298 343 7,600 -1,680 Descending Minneapolis Center
12:40PM 44.7717 -93.2742 174° South 274 315 5,800 -1,500 Descending Minneapolis Center
12:41PM 44.7086 -93.2714 178° South 240 276 4,600 -1,260 Descending Minneapolis Center
12:42PM 44.7314 -93.2011 65° Northeast 215 247 3,300 -1,020 Descending Minneapolis Center
12:43PM 44.7825 -93.2150 349° North 203 234 2,600 -780 Descending Minneapolis Center
12:44PM 44.8214 -93.2253 349° North 151 174 1,800 -780 Descending Minneapolis Center